createdAt,value
2023-02-27T00:00:46.767Z,6.71
2023-02-27T00:03:16.410Z,7.09
2023-02-27T00:05:50.687Z,7.07
2023-02-27T00:08:22.764Z,6.98
2023-02-27T00:10:57.046Z,7.01
2023-02-27T00:13:35.471Z,6.89
2023-02-27T00:16:12.870Z,6.83
2023-02-27T00:18:48.594Z,7.01
2023-02-27T00:28:12.594Z,6.52
2023-02-27T00:30:54.576Z,6.63
2023-02-27T00:33:26.595Z,6.95
2023-02-27T00:36:08.457Z,6.82
2023-02-27T00:38:43.309Z,6.83
2023-02-27T00:41:14.620Z,7.09
2023-02-27T00:43:44.468Z,7.09
2023-02-27T00:46:16.063Z,7.04
2023-02-27T00:48:48.316Z,7.31
2023-02-27T00:51:23.853Z,7.11
2023-02-27T00:54:12.632Z,7.38
2023-02-27T00:56:44.167Z,7.32
2023-02-27T00:59:19.190Z,7.10
2023-02-27T01:01:50.901Z,7.07
2023-02-27T01:04:22.717Z,7.36
2023-02-27T01:06:56.668Z,7.03
2023-02-27T01:09:34.822Z,7.25
2023-02-27T01:12:08.445Z,7.45
2023-02-27T01:14:42.351Z,7.00
2023-02-27T01:17:14.257Z,7.54
2023-02-27T01:19:44.348Z,7.28
2023-02-27T01:22:16.000Z,7.64
2023-02-27T01:24:50.553Z,7.42
2023-02-27T01:27:22.121Z,7.26
2023-02-27T01:29:52.431Z,7.45
2023-02-27T01:32:29.475Z,7.09
2023-02-27T01:35:14.689Z,7.43
2023-02-27T01:37:56.790Z,7.26
2023-02-27T01:40:41.079Z,7.28
2023-02-27T01:43:22.919Z,7.31
2023-02-27T01:46:04.546Z,7.66
2023-02-27T01:48:40.642Z,7.37
2023-02-27T01:51:23.404Z,7.61
2023-02-27T01:54:04.097Z,7.30
2023-02-27T01:56:37.077Z,7.63
2023-02-27T01:59:19.094Z,7.42
2023-02-27T02:01:56.140Z,7.36
2023-02-27T02:04:44.600Z,7.11
2023-02-27T02:07:19.606Z,7.33
2023-02-27T02:10:18.173Z,7.23
2023-02-27T02:12:50.519Z,6.75
2023-02-27T02:15:32.385Z,6.92
2023-02-27T02:18:14.588Z,6.42
2023-02-27T02:21:10.604Z,6.40
2023-02-27T02:24:15.277Z,6.10
2023-02-27T02:26:57.284Z,6.39
2023-02-27T02:30:11.238Z,6.26
2023-02-27T02:33:11.906Z,5.99
2023-02-27T02:36:08.359Z,6.25
2023-02-27T02:39:01.254Z,6.04
2023-02-27T02:42:09.095Z,6.05
2023-02-27T02:48:16.125Z,6.05
2023-02-27T02:50:59.868Z,6.49
2023-02-27T02:53:54.501Z,6.04
2023-02-27T02:57:43.938Z,5.75
2023-02-27T03:00:42.855Z,6.17
2023-02-27T03:03:39.476Z,6.33
2023-02-27T03:06:32.720Z,6.56
2023-02-27T03:09:19.976Z,6.08
2023-02-27T03:11:57.041Z,6.87
2023-02-27T03:14:48.597Z,6.49
2023-02-27T03:17:55.890Z,6.73
2023-02-27T03:20:51.100Z,6.13
2023-02-27T03:23:44.321Z,6.25
2023-02-27T03:26:22.407Z,6.19
2023-02-27T03:29:06.663Z,6.39
2023-02-27T03:32:10.342Z,6.01
2023-02-27T03:34:44.696Z,6.19
2023-02-27T03:37:37.894Z,6.09
2023-02-27T03:40:32.444Z,6.41
2023-02-27T03:43:22.760Z,6.30
2023-02-27T03:46:14.450Z,6.38
2023-02-27T03:48:48.653Z,6.45
2023-02-27T03:51:26.803Z,6.65
2023-02-27T03:54:13.984Z,6.95
2023-02-27T03:57:07.206Z,6.60
2023-02-27T03:59:42.684Z,6.85
2023-02-27T04:02:14.098Z,7.08
2023-02-27T04:04:46.676Z,6.95
2023-02-27T04:08:11.055Z,7.13
2023-02-27T04:11:16.617Z,7.08
2023-02-27T04:14:18.823Z,7.21
2023-02-27T04:16:50.920Z,7.25
2023-02-27T04:19:49.033Z,7.28
2023-02-27T04:22:39.564Z,7.24
2023-02-27T04:25:43.800Z,7.23
2023-02-27T04:28:35.666Z,7.51
2023-02-27T04:31:45.313Z,7.45
2023-02-27T04:34:46.608Z,7.60
2023-02-27T04:37:39.314Z,7.36
2023-02-27T04:40:24.035Z,7.40
2023-02-27T04:43:09.563Z,7.45
2023-02-27T04:46:15.075Z,7.47
2023-02-27T04:49:11.169Z,7.50
2023-02-27T04:52:12.822Z,7.31
2023-02-27T04:54:53.229Z,7.63
2023-02-27T04:57:44.788Z,7.56
2023-02-27T05:00:24.508Z,7.48
2023-02-27T05:03:23.479Z,7.48
2023-02-27T05:06:08.291Z,7.69
2023-02-27T05:09:24.733Z,7.68
2023-02-27T05:12:34.836Z,7.76
2023-02-27T05:15:37.592Z,7.68
2023-02-27T05:18:15.797Z,7.61
2023-02-27T05:21:25.266Z,7.91
2023-02-27T05:24:14.792Z,7.72
2023-02-27T05:27:21.186Z,7.58
2023-02-27T05:29:54.980Z,7.76
2023-02-27T05:32:43.751Z,7.84
2023-02-27T05:35:35.448Z,7.81
2023-02-27T05:38:24.816Z,8.22
2023-02-27T05:41:42.752Z,7.88
2023-02-27T05:44:28.782Z,7.76
2023-02-27T05:47:15.790Z,7.62
2023-02-27T05:50:14.915Z,7.87
2023-02-27T05:52:48.542Z,7.49
2023-02-27T05:55:32.541Z,7.84
2023-02-27T05:58:32.773Z,7.78
2023-02-27T06:01:14.429Z,7.46
2023-02-27T06:03:44.630Z,7.88
2023-02-27T06:06:20.470Z,7.74
2023-02-27T06:08:51.072Z,7.60
2023-02-27T06:11:22.350Z,7.17
2023-02-27T06:13:52.677Z,7.09
2023-02-27T06:16:33.262Z,7.03
2023-02-27T06:19:06.276Z,6.82
2023-02-27T06:21:36.375Z,7.12
2023-02-27T06:24:08.470Z,7.05
2023-02-27T06:26:42.865Z,7.19
2023-02-27T06:29:15.042Z,7.07
2023-02-27T06:31:45.335Z,7.03
2023-02-27T06:34:16.622Z,6.92
2023-02-27T06:36:48.598Z,7.39
2023-02-27T06:39:25.767Z,7.39
2023-02-27T06:41:56.053Z,7.29
2023-02-27T06:44:35.981Z,7.04
2023-02-27T06:47:09.097Z,7.01
2023-02-27T06:49:42.835Z,6.94
2023-02-27T06:52:15.093Z,7.19
2023-02-27T06:54:50.985Z,7.35
2023-02-27T06:57:21.094Z,7.35
2023-02-27T06:59:52.565Z,7.55
2023-02-27T07:02:27.196Z,7.43
2023-02-27T07:05:07.726Z,7.36
2023-02-27T07:07:41.264Z,7.78
2023-02-27T07:10:19.972Z,8.28
2023-02-27T07:12:51.112Z,8.25
2023-02-27T07:15:20.888Z,8.17
2023-02-27T07:17:52.832Z,8.26
2023-02-27T07:20:26.832Z,8.26
2023-02-27T07:23:08.152Z,7.88
2023-02-27T07:25:42.593Z,8.39
2023-02-27T07:28:14.744Z,8.73
2023-02-27T07:30:48.335Z,8.49
2023-02-27T07:33:22.484Z,8.58
2023-02-27T07:35:53.242Z,8.76
2023-02-27T07:38:32.937Z,8.48
2023-02-27T07:41:07.739Z,9.02
2023-02-27T07:43:39.105Z,9.05
2023-02-27T07:46:32.405Z,8.77
2023-02-27T07:49:06.387Z,8.62
2023-02-27T07:51:40.423Z,8.50
2023-02-27T07:54:28.746Z,8.44
2023-02-27T07:57:04.281Z,8.87
2023-02-27T07:59:38.988Z,8.56
2023-02-27T08:02:14.951Z,8.94
2023-02-27T08:04:46.644Z,9.03
2023-02-27T08:07:18.580Z,9.01
2023-02-27T08:09:51.498Z,8.69
2023-02-27T08:12:23.348Z,9.09
2023-02-27T08:14:54.793Z,9.19
2023-02-27T08:17:24.713Z,9.26
2023-02-27T08:20:19.812Z,8.78
2023-02-27T08:22:51.667Z,9.43
2023-02-27T08:25:22.720Z,9.03
2023-02-27T08:27:55.187Z,9.13
2023-02-27T08:30:27.333Z,9.11
2023-02-27T08:33:03.545Z,9.30
2023-02-27T08:35:38.744Z,9.25
2023-02-27T08:38:12.110Z,8.97
2023-02-27T08:40:42.968Z,8.62
2023-02-27T08:43:14.476Z,8.97
2023-02-27T08:45:44.683Z,9.06
2023-02-27T08:48:20.067Z,9.43
2023-02-27T08:50:56.231Z,9.45
2023-02-27T08:53:34.736Z,9.32
2023-02-27T08:56:07.173Z,9.26
2023-02-27T08:58:38.664Z,9.37
2023-02-27T09:01:11.396Z,9.22
2023-02-27T09:03:43.367Z,9.29
2023-02-27T09:06:15.140Z,9.60
2023-02-27T09:08:47.438Z,9.42
2023-02-27T09:11:20.415Z,9.53
2023-02-27T09:13:52.844Z,9.42
2023-02-27T09:16:28.250Z,9.67
2023-02-27T09:19:12.787Z,8.96
2023-02-27T09:21:45.377Z,9.32
2023-02-27T09:24:20.629Z,9.35
2023-02-27T09:26:52.561Z,9.27
2023-02-27T09:29:28.289Z,9.14
2023-02-27T09:32:04.137Z,9.35
2023-02-27T09:34:38.780Z,9.26
2023-02-27T09:37:11.438Z,9.08
2023-02-27T09:39:40.218Z,9.41
2023-02-27T09:42:35.802Z,9.24
2023-02-27T09:45:10.437Z,9.17
2023-02-27T09:47:52.400Z,9.10
2023-02-27T09:50:44.453Z,9.17
2023-02-27T09:53:28.406Z,9.13
2023-02-27T09:56:20.625Z,9.60
2023-02-27T09:59:07.482Z,9.32
2023-02-27T10:02:11.188Z,9.56
2023-02-27T10:04:55.457Z,9.29
2023-02-27T10:07:51.798Z,9.27
2023-02-27T10:10:24.985Z,9.43
2023-02-27T10:13:44.370Z,9.47
2023-02-27T10:16:23.862Z,9.47
2023-02-27T10:19:11.080Z,9.62
2023-02-27T10:21:52.865Z,9.70
2023-02-27T10:25:06.284Z,9.30
2023-02-27T10:27:44.117Z,9.72
2023-02-27T10:30:29.822Z,9.19
2023-02-27T10:33:41.068Z,9.37
2023-02-27T10:36:31.017Z,9.50
2023-02-27T10:39:10.654Z,9.52
2023-02-27T10:41:42.508Z,9.55
2023-02-27T10:44:23.443Z,9.76
2023-02-27T10:47:11.493Z,9.61
2023-02-27T10:49:45.013Z,9.74
2023-02-27T10:52:20.379Z,9.20
2023-02-27T10:54:50.991Z,9.24
2023-02-27T10:57:24.601Z,9.38
2023-02-27T11:00:11.479Z,9.49
2023-02-27T11:02:47.989Z,9.88
2023-02-27T11:05:51.235Z,9.79
2023-02-27T11:08:34.593Z,9.65
2023-02-27T11:11:13.266Z,9.62
2023-02-27T11:13:47.389Z,9.63
2023-02-27T11:16:23.608Z,9.83
2023-02-27T11:19:35.832Z,9.79
2023-02-27T11:22:11.209Z,9.91
2023-02-27T11:24:47.462Z,9.99
2023-02-27T11:27:32.237Z,9.86
2023-02-27T11:30:32.775Z,9.80
2023-02-27T11:33:16.618Z,9.87
2023-02-27T11:35:57.745Z,9.65
2023-02-27T11:38:34.436Z,9.91
2023-02-27T11:41:14.573Z,10.00
2023-02-27T11:43:56.437Z,10.23
2023-02-27T11:46:46.795Z,10.08
2023-02-27T11:49:36.848Z,10.16
2023-02-27T11:52:20.345Z,9.66
2023-02-27T11:55:15.321Z,10.13
2023-02-27T11:57:53.209Z,9.85
2023-02-27T12:00:48.977Z,9.53
2023-02-27T12:03:25.347Z,9.67
2023-02-27T12:06:17.601Z,9.90
2023-02-27T12:09:27.388Z,10.02
2023-02-27T12:12:09.311Z,9.46
2023-02-27T12:14:51.072Z,9.81
2023-02-27T12:17:43.583Z,9.98
2023-02-27T12:20:34.948Z,9.98
2023-02-27T12:23:16.801Z,9.74
2023-02-27T12:25:55.596Z,10.22
2023-02-27T12:28:35.431Z,10.16
2023-02-27T12:31:24.133Z,10.18
2023-02-27T12:34:19.233Z,9.59
2023-02-27T12:36:59.851Z,9.38
2023-02-27T12:39:32.655Z,9.71
2023-02-27T12:42:39.557Z,9.91
2023-02-27T12:45:20.390Z,9.98
2023-02-27T12:48:08.093Z,9.77
2023-02-27T12:51:31.138Z,10.39
2023-02-27T12:54:20.865Z,10.10
2023-02-27T12:57:31.883Z,10.10
2023-02-27T13:00:32.178Z,10.04
2023-02-27T13:03:50.445Z,10.00
2023-02-27T13:06:40.568Z,9.57
2023-02-27T13:09:31.929Z,9.43
2023-02-27T13:12:32.566Z,9.28
2023-02-27T13:15:30.713Z,9.81
2023-02-27T13:18:32.251Z,10.04
2023-02-27T13:21:21.404Z,10.00
2023-02-27T13:24:41.255Z,10.06
2023-02-27T13:27:28.321Z,9.91
2023-02-27T13:30:02.709Z,9.33
2023-02-27T13:33:07.545Z,10.00
2023-02-27T13:36:07.741Z,9.79
2023-02-27T13:38:52.017Z,9.74
2023-02-27T13:41:23.163Z,9.79
2023-02-27T13:43:56.559Z,9.20
2023-02-27T13:46:38.963Z,9.70
2023-02-27T13:49:17.252Z,9.27
2023-02-27T13:52:06.884Z,9.39
2023-02-27T13:54:41.794Z,9.61
2023-02-27T13:57:30.215Z,9.11
2023-02-27T14:00:06.412Z,9.01
2023-02-27T14:03:08.947Z,9.43
2023-02-27T14:05:43.884Z,9.12
2023-02-27T14:08:39.960Z,9.18
2023-02-27T14:11:12.860Z,9.13
2023-02-27T14:13:53.308Z,9.18
2023-02-27T14:16:41.048Z,9.14
2023-02-27T14:19:20.075Z,9.06
2023-02-27T14:22:01.999Z,8.96
2023-02-27T14:24:44.817Z,8.88
2023-02-27T14:27:25.005Z,8.67
2023-02-27T14:30:00.966Z,8.47
2023-02-27T14:32:36.124Z,8.62
2023-02-27T14:35:08.347Z,8.64
2023-02-27T14:37:38.367Z,8.45
2023-02-27T14:40:29.705Z,8.40
2023-02-27T14:43:31.010Z,7.99
2023-02-27T14:46:31.425Z,7.86
2023-02-27T14:49:19.433Z,8.21
2023-02-27T14:51:48.798Z,8.02
2023-02-27T14:54:21.325Z,8.20
2023-02-27T14:57:04.917Z,8.02
2023-02-27T14:59:43.799Z,8.24
2023-02-27T15:02:31.396Z,7.89
2023-02-27T15:05:04.292Z,8.38
2023-02-27T15:07:36.322Z,7.79
2023-02-27T15:10:08.917Z,8.31
2023-02-27T15:12:41.040Z,8.01
2023-02-27T15:15:18.187Z,7.76
2023-02-27T15:17:48.535Z,7.79
2023-02-27T15:20:30.321Z,7.43
2023-02-27T15:23:02.138Z,7.71
2023-02-27T15:25:37.308Z,7.88
2023-02-27T15:28:16.465Z,7.80
2023-02-27T15:30:53.126Z,7.55
2023-02-27T15:33:30.400Z,7.61
2023-02-27T15:36:01.336Z,7.46
2023-02-27T15:38:36.066Z,7.67
2023-02-27T15:41:05.409Z,7.60
2023-02-27T15:43:34.391Z,7.10
2023-02-27T15:46:03.265Z,7.22
2023-02-27T15:48:38.522Z,7.06
2023-02-27T15:51:12.058Z,7.21
2023-02-27T15:53:50.242Z,7.48
2023-02-27T15:56:34.342Z,6.98
2023-02-27T15:59:05.043Z,7.50
2023-02-27T16:01:35.819Z,7.48
2023-02-27T16:04:20.758Z,7.09
2023-02-27T16:07:20.890Z,7.08
2023-02-27T16:10:02.594Z,7.01
2023-02-27T16:12:38.358Z,7.35
2023-02-27T16:15:33.877Z,6.67
2023-02-27T16:18:09.128Z,7.07
2023-02-27T16:20:46.361Z,7.39
2023-02-27T16:23:23.656Z,7.32
2023-02-27T16:26:03.656Z,7.15
2023-02-27T16:28:41.448Z,7.14
2023-02-27T16:31:28.359Z,6.83
2023-02-27T16:34:03.636Z,6.76
2023-02-27T16:36:34.045Z,6.42
2023-02-27T16:39:03.122Z,6.64
2023-02-27T16:41:32.586Z,7.07
2023-02-27T16:44:02.238Z,7.34
2023-02-27T16:46:31.585Z,7.30
2023-02-27T16:49:14.128Z,7.20
2023-02-27T16:51:48.258Z,7.23
2023-02-27T16:54:18.374Z,7.40
2023-02-27T16:56:48.610Z,7.40
2023-02-27T16:59:34.851Z,6.84
2023-02-27T17:02:06.232Z,7.31
2023-02-27T17:04:35.084Z,7.14
2023-02-27T17:07:06.533Z,6.94
2023-02-27T17:09:36.314Z,6.95
2023-02-27T17:12:05.314Z,7.28
2023-02-27T17:14:34.618Z,6.89
2023-02-27T17:17:06.349Z,6.78
2023-02-27T17:19:36.724Z,6.74
2023-02-27T17:22:06.548Z,6.84
2023-02-27T17:24:36.006Z,7.04
2023-02-27T17:27:05.094Z,7.28
2023-02-27T17:29:34.225Z,6.92
2023-02-27T17:32:03.894Z,6.92
2023-02-27T17:34:32.239Z,7.33
2023-02-27T17:37:02.350Z,7.27
2023-02-27T17:39:31.025Z,7.26
2023-02-27T17:42:02.549Z,6.67
2023-02-27T17:44:33.180Z,6.99
2023-02-27T17:47:02.655Z,7.25
2023-02-27T17:49:31.758Z,7.20
2023-02-27T17:52:01.394Z,6.97
2023-02-27T17:54:32.124Z,7.31
2023-02-27T17:57:01.388Z,7.02
2023-02-27T17:59:30.833Z,7.04
2023-02-27T18:02:00.997Z,6.96
2023-02-27T18:04:31.025Z,7.39
2023-02-27T18:07:00.764Z,7.43
2023-02-27T18:09:31.844Z,7.16
2023-02-27T18:12:00.830Z,7.27
2023-02-27T18:14:30.682Z,7.22
2023-02-27T18:17:00.833Z,6.97
2023-02-27T18:19:32.538Z,7.13
2023-02-27T18:22:02.359Z,7.15
2023-02-27T18:24:31.350Z,7.39
2023-02-27T18:27:03.118Z,6.99
2023-02-27T18:29:32.384Z,7.29
2023-02-27T18:32:01.646Z,7.55
2023-02-27T18:34:31.744Z,7.29
2023-02-27T18:37:02.008Z,7.24
2023-02-27T18:39:31.097Z,7.18
2023-02-27T18:42:01.891Z,7.09
2023-02-27T18:44:30.427Z,7.14
2023-02-27T18:47:00.468Z,7.62
2023-02-27T18:49:30.518Z,7.58
2023-02-27T18:52:00.185Z,7.84
2023-02-27T18:54:30.193Z,7.67
2023-02-27T18:57:02.848Z,7.56
2023-02-27T18:59:33.851Z,7.60
2023-02-27T19:02:03.326Z,7.86
2023-02-27T19:04:43.252Z,7.68
2023-02-27T19:07:12.536Z,7.89
2023-02-27T19:09:41.892Z,8.06
2023-02-27T19:12:12.198Z,7.84
2023-02-27T19:14:41.275Z,8.01
2023-02-27T19:17:10.665Z,7.94
2023-02-27T19:19:40.207Z,8.28
2023-02-27T19:22:10.041Z,8.44
2023-02-27T19:24:40.162Z,8.08
2023-02-27T19:27:18.456Z,7.88
2023-02-27T19:29:47.956Z,7.76
2023-02-27T19:32:16.678Z,7.93
2023-02-27T19:34:46.547Z,8.15
2023-02-27T19:37:17.306Z,8.17
2023-02-27T19:39:47.660Z,8.22
2023-02-27T19:42:16.722Z,8.14
2023-02-27T19:44:46.483Z,8.06
2023-02-27T19:47:15.739Z,8.11
2023-02-27T19:49:44.973Z,8.28
2023-02-27T19:52:14.426Z,8.41
2023-02-27T19:54:43.612Z,8.33
2023-02-27T19:57:15.193Z,8.50
2023-02-27T19:59:46.578Z,8.21
2023-02-27T20:02:15.966Z,7.91
2023-02-27T20:04:46.363Z,7.32
2023-02-27T20:07:14.577Z,7.29
2023-02-27T20:09:43.872Z,7.58
2023-02-27T20:12:12.432Z,7.69
2023-02-27T20:14:43.608Z,7.71
2023-02-27T20:17:15.435Z,7.58
2023-02-27T20:19:44.571Z,7.33
2023-02-27T20:22:18.297Z,7.35
2023-02-27T20:24:47.164Z,7.66
2023-02-27T20:27:16.457Z,7.83
2023-02-27T20:29:45.492Z,7.47
2023-02-27T20:32:15.461Z,7.47
2023-02-27T20:34:45.862Z,7.49
2023-02-27T20:37:14.383Z,7.84
2023-02-27T20:39:46.412Z,7.43
2023-02-27T20:42:16.089Z,7.23
2023-02-27T20:44:45.082Z,7.31
2023-02-27T20:47:14.277Z,7.57
2023-02-27T20:49:42.882Z,7.22
2023-02-27T20:52:12.183Z,7.85
2023-02-27T20:54:40.721Z,7.65
2023-02-27T20:57:10.517Z,7.57
2023-02-27T20:59:43.256Z,7.54
2023-02-27T21:02:12.798Z,8.48
2023-02-27T21:04:48.162Z,8.57
2023-02-27T21:07:22.322Z,8.20
2023-02-27T21:09:51.868Z,8.41
2023-02-27T21:12:20.699Z,8.29
2023-02-27T21:14:50.336Z,7.90
2023-02-27T21:17:18.713Z,7.37
2023-02-27T21:19:48.365Z,7.45
2023-02-27T21:22:18.532Z,7.46
2023-02-27T21:24:50.493Z,7.35
2023-02-27T21:27:22.130Z,7.34
2023-02-27T21:29:51.927Z,7.45
2023-02-27T21:32:22.456Z,7.72
2023-02-27T21:34:51.882Z,7.34
2023-02-27T21:37:21.082Z,7.63
2023-02-27T21:39:54.668Z,7.41
2023-02-27T21:42:23.883Z,7.47
2023-02-27T21:44:52.947Z,7.65
2023-02-27T21:47:22.360Z,7.69
2023-02-27T21:49:52.804Z,7.77
2023-02-27T21:52:22.221Z,7.72
2023-02-27T21:54:51.361Z,7.78
2023-02-27T21:57:22.221Z,7.58
2023-02-27T21:59:51.412Z,7.49
2023-02-27T22:02:20.223Z,7.93
2023-02-27T22:04:48.745Z,7.92
2023-02-27T22:07:18.335Z,7.81
2023-02-27T22:09:50.404Z,7.59
2023-02-27T22:12:19.118Z,8.01
2023-02-27T22:14:49.578Z,8.16
2023-02-27T22:17:21.561Z,7.52
2023-02-27T22:19:50.437Z,7.69
2023-02-27T22:22:19.824Z,8.19
2023-02-27T22:24:48.739Z,7.85
2023-02-27T22:27:17.743Z,8.00
2023-02-27T22:29:47.722Z,8.06
2023-02-27T22:32:20.339Z,8.19
2023-02-27T22:34:49.268Z,8.06
2023-02-27T22:37:20.616Z,8.14
2023-02-27T22:39:50.318Z,7.83
2023-02-27T22:42:19.510Z,8.03
2023-02-27T22:44:48.774Z,8.25
2023-02-27T22:47:18.154Z,7.93
2023-02-27T22:49:46.586Z,7.86
2023-02-27T22:52:15.602Z,7.96
2023-02-27T22:54:44.680Z,8.10
2023-02-27T22:57:14.191Z,8.23
2023-02-27T22:59:43.324Z,8.16
2023-02-27T23:02:14.948Z,8.71
2023-02-27T23:04:43.944Z,8.56
2023-02-27T23:07:12.852Z,9.24
2023-02-27T23:09:42.368Z,9.33
2023-02-27T23:12:11.653Z,9.25
2023-02-27T23:14:44.840Z,9.39
2023-02-27T23:17:14.429Z,9.23
2023-02-27T23:19:43.667Z,9.18
2023-02-27T23:22:12.811Z,9.37
2023-02-27T23:24:43.216Z,9.30
2023-02-27T23:27:25.327Z,9.19
2023-02-27T23:29:54.508Z,8.34
2023-02-27T23:32:23.600Z,8.54
2023-02-27T23:34:53.042Z,9.56
2023-02-27T23:37:22.739Z,9.01
2023-02-27T23:39:52.178Z,8.67
2023-02-27T23:42:21.298Z,8.45
2023-02-27T23:45:09.737Z,8.37
2023-02-27T23:47:45.048Z,8.50
2023-02-27T23:50:14.094Z,9.42
2023-02-27T23:52:42.418Z,9.57
2023-02-27T23:55:12.197Z,9.44
2023-02-27T23:57:45.435Z,9.91
